createdAt,value
2022-11-15T00:01:30.192Z,95.50
2022-11-15T00:03:57.173Z,95.60
2022-11-15T00:06:24.110Z,95.50
2022-11-15T00:08:50.959Z,95.60
2022-11-15T00:11:17.890Z,95.60
2022-11-15T00:13:44.733Z,95.70
2022-11-15T00:16:11.755Z,95.70
2022-11-15T00:18:39.473Z,95.70
2022-11-15T00:21:10.309Z,95.80
2022-11-15T00:23:37.430Z,95.80
2022-11-15T00:26:05.120Z,95.80
2022-11-15T00:28:32.160Z,95.90
2022-11-15T00:31:10.327Z,95.90
2022-11-15T00:33:37.035Z,96.00
2022-11-15T00:36:06.280Z,96.10
2022-11-15T00:38:34.569Z,96.10
2022-11-15T00:41:07.753Z,96.20
2022-11-15T00:43:36.331Z,96.20
2022-11-15T00:46:03.379Z,96.30
2022-11-15T00:48:30.658Z,96.30
2022-11-15T00:50:59.374Z,96.40
2022-11-15T00:53:26.352Z,96.50
2022-11-15T00:55:53.786Z,96.50
2022-11-15T00:58:20.670Z,96.60
2022-11-15T01:00:47.466Z,96.70
2022-11-15T01:03:14.422Z,96.80
2022-11-15T01:05:41.166Z,96.80
2022-11-15T01:08:12.507Z,96.80
2022-11-15T01:10:39.250Z,96.90
2022-11-15T01:13:06.024Z,97.00
2022-11-15T01:15:32.771Z,97.00
2022-11-15T01:17:59.490Z,97.10
2022-11-15T01:20:26.253Z,97.20
2022-11-15T01:22:52.986Z,97.20
2022-11-15T01:25:19.683Z,97.30
2022-11-15T01:27:46.437Z,97.30
2022-11-15T01:30:13.406Z,97.40
2022-11-15T01:32:40.430Z,97.40
2022-11-15T01:35:07.622Z,97.50
2022-11-15T01:37:34.539Z,97.70
2022-11-15T01:40:01.306Z,97.70
2022-11-15T01:42:28.006Z,97.70
2022-11-15T01:44:55.835Z,97.80
2022-11-15T01:47:38.463Z,97.80
2022-11-15T01:50:11.512Z,97.80
2022-11-15T01:52:40.354Z,97.90
2022-11-15T01:55:10.208Z,97.90
2022-11-15T01:57:37.245Z,98.00
2022-11-15T02:00:05.656Z,98.00
2022-11-15T02:02:34.005Z,98.10
2022-11-15T02:05:01.121Z,98.20
2022-11-15T02:07:29.419Z,98.20
2022-11-15T02:09:59.407Z,98.30
2022-11-15T02:12:26.190Z,98.30
2022-11-15T02:14:55.409Z,98.40
2022-11-15T02:17:38.733Z,98.40
2022-11-15T02:20:32.806Z,98.40
2022-11-15T02:23:29.993Z,98.40
2022-11-15T02:26:28.721Z,98.40
2022-11-15T02:29:06.082Z,98.50
2022-11-15T02:31:56.467Z,98.50
2022-11-15T02:34:38.145Z,98.50
2022-11-15T02:37:16.614Z,98.50
2022-11-15T02:39:51.562Z,98.60
2022-11-15T02:42:43.744Z,98.50
2022-11-15T02:45:17.945Z,98.60
2022-11-15T02:47:49.918Z,98.60
2022-11-15T02:50:21.162Z,98.60
2022-11-15T02:52:50.008Z,98.70
2022-11-15T02:55:35.957Z,98.80
2022-11-15T02:58:17.355Z,98.80
2022-11-15T03:01:20.870Z,98.90
2022-11-15T03:03:47.587Z,99.00
2022-11-15T03:06:37.481Z,99.00
2022-11-15T03:09:12.897Z,99.00
2022-11-15T03:11:48.987Z,99.00
2022-11-15T03:14:59.576Z,99.10
2022-11-15T03:17:35.022Z,99.10
2022-11-15T03:20:05.349Z,99.10
2022-11-15T03:22:37.478Z,99.10
2022-11-15T03:25:09.694Z,99.20
2022-11-15T03:27:47.444Z,99.20
2022-11-15T03:30:14.895Z,99.20
2022-11-15T03:32:47.722Z,99.20
2022-11-15T03:35:22.229Z,99.20
2022-11-15T03:38:12.930Z,99.30
2022-11-15T03:41:06.744Z,99.30
2022-11-15T03:43:53.805Z,99.40
2022-11-15T03:46:44.031Z,99.40
2022-11-15T03:49:33.857Z,99.40
2022-11-15T03:52:02.483Z,99.30
2022-11-15T03:54:29.329Z,99.40
2022-11-15T03:56:56.111Z,99.40
2022-11-15T03:59:23.351Z,99.40
2022-11-15T04:01:50.186Z,99.40
2022-11-15T04:04:16.989Z,99.50
2022-11-15T04:06:43.765Z,99.50
2022-11-15T04:09:10.540Z,99.50
2022-11-15T04:11:37.315Z,99.50
2022-11-15T04:14:04.527Z,99.60
2022-11-15T04:16:31.259Z,99.60
2022-11-15T04:19:16.489Z,99.60
2022-11-15T04:22:01.942Z,99.60
2022-11-15T04:24:28.794Z,99.60
2022-11-15T04:26:55.578Z,99.60
2022-11-15T04:29:37.625Z,99.60
2022-11-15T04:32:06.319Z,99.70
2022-11-15T04:34:33.596Z,99.70
2022-11-15T04:37:17.008Z,99.70
2022-11-15T04:39:46.849Z,99.70
2022-11-15T04:42:13.668Z,99.80
2022-11-15T04:44:40.528Z,99.90
2022-11-15T04:47:07.305Z,99.90
2022-11-15T04:49:34.100Z,99.90
2022-11-15T04:52:00.912Z,99.90
2022-11-15T04:54:27.695Z,99.90
2022-11-15T04:56:54.415Z,99.90
2022-11-15T04:59:21.156Z,99.90
2022-11-15T05:01:50.953Z,99.90
2022-11-15T05:04:20.361Z,99.90
2022-11-15T05:06:48.973Z,99.90
2022-11-15T05:09:15.922Z,99.90
2022-11-15T05:11:43.329Z,99.90
2022-11-15T05:14:10.493Z,99.90
2022-11-15T05:16:37.874Z,99.90
2022-11-15T05:19:05.363Z,99.90
2022-11-15T05:21:32.421Z,99.90
2022-11-15T05:23:59.345Z,99.90
2022-11-15T05:26:26.296Z,99.90
2022-11-15T05:28:57.650Z,99.90
2022-11-15T05:31:25.591Z,99.90
2022-11-15T05:33:53.089Z,99.90
2022-11-15T05:36:37.935Z,99.90
2022-11-15T05:41:50.670Z,99.90
2022-11-15T05:44:21.569Z,99.90
2022-11-15T05:46:51.789Z,99.90
2022-11-15T05:49:22.607Z,99.90
2022-11-15T05:51:50.767Z,99.90
2022-11-15T05:54:18.691Z,99.90
2022-11-15T05:56:45.703Z,99.90
2022-11-15T05:59:13.148Z,99.90
2022-11-15T06:01:44.405Z,99.90
2022-11-15T06:04:11.463Z,99.90
2022-11-15T06:06:38.280Z,99.90
2022-11-15T06:09:05.157Z,99.90
2022-11-15T06:11:31.954Z,99.90
2022-11-15T06:13:58.762Z,99.90
2022-11-15T06:16:28.228Z,99.90
2022-11-15T06:18:55.159Z,99.90
2022-11-15T06:21:22.419Z,99.90
2022-11-15T06:23:51.928Z,99.90
2022-11-15T06:26:20.309Z,99.90
2022-11-15T06:28:49.388Z,99.90
2022-11-15T06:31:16.668Z,99.90
2022-11-15T06:33:43.625Z,99.90
2022-11-15T06:36:18.406Z,99.90
2022-11-15T06:38:46.183Z,99.90
2022-11-15T06:41:14.419Z,99.90
2022-11-15T06:43:42.250Z,99.90
2022-11-15T06:46:11.084Z,99.90
2022-11-15T06:48:38.131Z,99.90
2022-11-15T06:51:06.150Z,99.90
2022-11-15T06:53:34.765Z,99.90
2022-11-15T06:56:03.072Z,99.90
2022-11-15T06:58:30.447Z,99.90
2022-11-15T07:01:07.598Z,99.90
2022-11-15T07:03:39.821Z,99.90
2022-11-15T07:06:07.925Z,99.90
2022-11-15T07:08:36.477Z,99.90
2022-11-15T07:11:05.436Z,99.90
2022-11-15T07:13:34.871Z,99.90
2022-11-15T07:16:10.343Z,99.90
2022-11-15T07:18:38.942Z,99.90
2022-11-15T07:21:10.244Z,99.90
2022-11-15T07:23:39.123Z,99.90
2022-11-15T07:26:07.811Z,99.90
2022-11-15T07:28:35.028Z,99.90
2022-11-15T07:31:06.947Z,99.90
2022-11-15T07:33:34.659Z,99.90
2022-11-15T07:36:03.066Z,99.90
2022-11-15T07:38:30.838Z,99.90
2022-11-15T07:41:03.084Z,99.90
2022-11-15T07:43:31.168Z,99.90
2022-11-15T07:45:59.610Z,99.90
2022-11-15T07:48:35.625Z,99.90
2022-11-15T07:51:13.896Z,99.90
2022-11-15T07:53:42.787Z,99.90
2022-11-15T07:56:11.250Z,99.90
2022-11-15T07:58:38.193Z,99.90
2022-11-15T08:01:10.484Z,99.90
2022-11-15T08:03:38.324Z,99.90
2022-11-15T08:06:05.533Z,99.90
2022-11-15T08:08:35.074Z,99.90
2022-11-15T08:11:03.234Z,99.90
2022-11-15T08:13:30.193Z,99.90
2022-11-15T08:16:01.473Z,99.90
2022-11-15T08:18:28.315Z,99.90
2022-11-15T08:21:00.846Z,99.90
2022-11-15T08:23:32.066Z,99.90
2022-11-15T08:26:05.677Z,99.80
2022-11-15T08:28:34.079Z,99.80
2022-11-15T08:31:00.883Z,99.90
2022-11-15T08:33:29.085Z,99.70
2022-11-15T08:36:00.725Z,99.60
2022-11-15T08:38:30.933Z,99.50
2022-11-15T08:41:07.725Z,99.40
2022-11-15T08:43:37.576Z,99.30
2022-11-15T08:46:04.480Z,99.20
2022-11-15T08:48:31.647Z,99.20
2022-11-15T08:50:59.119Z,99.10
2022-11-15T08:53:26.139Z,99.10
2022-11-15T08:55:53.361Z,99.00
2022-11-15T08:58:20.110Z,98.90
2022-11-15T09:00:46.978Z,99.00
2022-11-15T09:03:13.794Z,99.00
2022-11-15T09:05:40.553Z,98.90
2022-11-15T09:08:32.856Z,98.70
2022-11-15T09:10:57.392Z,98.30
2022-11-15T09:13:24.260Z,97.70
2022-11-15T09:15:50.999Z,96.80
2022-11-15T09:18:17.743Z,96.70
2022-11-15T09:20:45.044Z,96.00
2022-11-15T09:23:11.840Z,95.30
2022-11-15T09:25:38.656Z,94.60
2022-11-15T09:28:08.876Z,94.10
2022-11-15T09:30:35.697Z,94.40
2022-11-15T09:33:13.481Z,94.10
2022-11-15T09:35:42.217Z,92.30
2022-11-15T09:38:09.091Z,92.40
2022-11-15T09:40:39.942Z,92.20
2022-11-15T09:43:35.401Z,93.20
2022-11-15T09:46:05.012Z,92.20
2022-11-15T09:48:47.344Z,91.20
2022-11-15T09:51:31.632Z,91.50
2022-11-15T09:57:42.684Z,90.30
2022-11-15T10:00:50.361Z,90.00
2022-11-15T10:03:38.918Z,89.60
2022-11-15T10:06:06.917Z,86.20
2022-11-15T10:09:00.922Z,85.90
2022-11-15T10:11:39.987Z,85.30
2022-11-15T10:14:33.280Z,85.10
2022-11-15T10:17:07.582Z,84.80
2022-11-15T10:19:49.373Z,84.40
2022-11-15T10:22:41.155Z,81.40
2022-11-15T10:25:21.222Z,80.90
2022-11-15T10:28:16.765Z,81.60
2022-11-15T10:30:48.895Z,80.50
2022-11-15T10:33:30.821Z,80.00
2022-11-15T10:36:26.587Z,78.40
2022-11-15T10:38:55.682Z,77.90
2022-11-15T10:41:30.887Z,78.20
2022-11-15T10:44:21.494Z,77.10
2022-11-15T10:47:26.525Z,74.90
2022-11-15T10:50:23.445Z,75.50
2022-11-15T10:52:50.267Z,74.00
2022-11-15T10:55:17.084Z,73.10
2022-11-15T10:57:51.773Z,72.90
2022-11-15T11:00:21.473Z,71.40
2022-11-15T11:02:59.029Z,73.40
2022-11-15T11:05:42.533Z,72.00
2022-11-15T11:08:24.607Z,70.00
2022-11-15T11:11:02.549Z,69.50
2022-11-15T11:13:38.603Z,68.50
2022-11-15T11:16:38.728Z,66.80
2022-11-15T11:19:17.656Z,66.30
2022-11-15T11:22:02.367Z,63.00
2022-11-15T11:24:53.645Z,60.00
2022-11-15T11:27:30.325Z,59.00
2022-11-15T11:30:13.005Z,60.40
2022-11-15T11:33:12.907Z,60.30
2022-11-15T11:35:48.728Z,61.30
2022-11-15T11:38:55.796Z,62.20
2022-11-15T11:41:48.744Z,62.20
2022-11-15T11:44:30.791Z,63.60
2022-11-15T11:47:01.823Z,63.30
2022-11-15T11:49:47.503Z,63.60
2022-11-15T11:52:28.232Z,63.20
2022-11-15T11:55:13.280Z,63.30
2022-11-15T11:57:43.778Z,62.70
2022-11-15T12:00:24.968Z,62.30
2022-11-15T12:03:24.216Z,61.50
2022-11-15T12:06:34.324Z,62.10
2022-11-15T12:09:19.879Z,61.30
2022-11-15T12:12:11.659Z,62.10
2022-11-15T12:14:50.094Z,63.00
2022-11-15T12:17:22.652Z,64.20
2022-11-15T12:19:50.973Z,64.90
2022-11-15T12:23:24.135Z,64.40
2022-11-15T12:25:59.254Z,64.60
2022-11-15T12:29:06.904Z,65.00
2022-11-15T12:31:44.853Z,65.50
2022-11-15T12:34:23.652Z,66.00
2022-11-15T12:36:52.347Z,65.70
2022-11-15T12:39:21.242Z,66.00
2022-11-15T12:41:57.079Z,66.50
2022-11-15T12:44:49.904Z,66.30
2022-11-15T12:47:27.781Z,66.20
2022-11-15T12:49:55.036Z,65.60
2022-11-15T12:52:21.886Z,65.00
2022-11-15T12:54:57.505Z,65.30
2022-11-15T12:57:33.415Z,65.90
2022-11-15T13:00:07.955Z,66.00
2022-11-15T13:02:49.471Z,65.40
2022-11-15T13:05:28.201Z,65.70
2022-11-15T13:07:59.235Z,65.70
2022-11-15T13:10:34.162Z,65.60
2022-11-15T13:13:05.059Z,66.30
2022-11-15T13:15:38.115Z,66.50
2022-11-15T13:18:30.569Z,67.00
2022-11-15T13:21:02.135Z,66.20
2022-11-15T13:23:29.360Z,65.90
2022-11-15T13:26:18.939Z,66.10
2022-11-15T13:28:49.496Z,66.70
2022-11-15T13:31:30.758Z,67.30
2022-11-15T13:34:01.937Z,67.90
2022-11-15T13:36:36.693Z,68.10
2022-11-15T13:39:05.119Z,68.30
2022-11-15T13:41:37.122Z,68.60
2022-11-15T13:44:05.327Z,69.50
2022-11-15T13:46:39.142Z,69.80
2022-11-15T13:49:13.667Z,69.90
2022-11-15T13:51:55.872Z,69.60
2022-11-15T13:54:46.303Z,70.00
2022-11-15T13:57:28.757Z,70.40
2022-11-15T14:00:03.305Z,70.80
2022-11-15T14:02:39.473Z,71.40
2022-11-15T14:05:24.611Z,71.70
2022-11-15T14:08:16.796Z,72.00
2022-11-15T14:10:43.553Z,72.30
2022-11-15T14:13:30.904Z,72.40
2022-11-15T14:16:17.483Z,72.70
2022-11-15T14:18:52.244Z,72.80
2022-11-15T14:21:20.437Z,72.70
2022-11-15T14:23:47.602Z,72.80
2022-11-15T14:26:30.626Z,72.70
2022-11-15T14:28:57.881Z,73.00
2022-11-15T14:31:24.689Z,73.00
2022-11-15T14:33:51.584Z,73.80
2022-11-15T14:36:20.694Z,73.30
2022-11-15T14:38:48.799Z,73.10
2022-11-15T14:41:33.540Z,73.00
2022-11-15T14:44:09.279Z,73.00
2022-11-15T14:46:36.083Z,73.10
2022-11-15T14:49:06.558Z,73.20
2022-11-15T14:51:36.769Z,73.30
2022-11-15T14:54:06.341Z,73.40
2022-11-15T14:56:33.421Z,73.50
2022-11-15T14:59:01.069Z,74.00
2022-11-15T15:01:28.308Z,73.80
2022-11-15T15:03:58.073Z,73.80
2022-11-15T15:06:25.289Z,73.70
2022-11-15T15:08:52.247Z,73.70
2022-11-15T15:11:27.682Z,73.60
2022-11-15T15:13:58.065Z,73.60
2022-11-15T15:16:25.629Z,73.50
2022-11-15T15:18:52.683Z,73.60
2022-11-15T15:21:33.611Z,73.80
2022-11-15T15:24:04.061Z,73.30
2022-11-15T15:26:37.977Z,72.90
2022-11-15T15:29:04.739Z,72.70
2022-11-15T15:31:31.564Z,72.80
2022-11-15T15:33:58.391Z,72.80
2022-11-15T15:36:25.119Z,72.70
2022-11-15T15:38:51.855Z,72.70
2022-11-15T15:41:19.076Z,72.40
2022-11-15T15:43:45.912Z,72.50
2022-11-15T15:46:15.680Z,72.30
2022-11-15T15:48:43.355Z,72.50
2022-11-15T15:51:30.130Z,72.80
2022-11-15T15:53:58.412Z,72.60
2022-11-15T15:56:25.328Z,72.60
2022-11-15T15:58:53.545Z,72.50
2022-11-15T16:01:20.349Z,72.40
2022-11-15T16:03:47.681Z,72.30
2022-11-15T16:06:43.073Z,72.10
2022-11-15T16:09:16.079Z,72.00
2022-11-15T16:11:45.911Z,72.10
2022-11-15T16:14:13.164Z,72.20
2022-11-15T16:16:41.865Z,72.10
2022-11-15T16:19:14.348Z,72.00
2022-11-15T16:21:41.146Z,72.20
2022-11-15T16:24:07.985Z,72.00
2022-11-15T16:26:36.741Z,71.80
2022-11-15T16:29:03.592Z,71.60
2022-11-15T16:31:30.375Z,71.50
2022-11-15T16:33:57.156Z,71.70
2022-11-15T16:36:30.436Z,71.80
2022-11-15T16:38:58.838Z,71.70
2022-11-15T16:41:28.614Z,71.80
2022-11-15T16:43:55.427Z,71.70
2022-11-15T16:46:24.760Z,71.90
2022-11-15T16:48:52.102Z,72.00
2022-11-15T16:51:18.869Z,72.90
2022-11-15T16:53:46.879Z,72.60
2022-11-15T16:56:29.080Z,73.00
2022-11-15T16:59:00.707Z,73.30
2022-11-15T17:01:36.514Z,73.80
2022-11-15T17:04:14.640Z,74.70
2022-11-15T17:06:48.525Z,75.20
2022-11-15T17:09:20.818Z,75.80
2022-11-15T17:11:47.716Z,76.60
2022-11-15T17:14:14.570Z,77.10
2022-11-15T17:16:42.628Z,77.50
2022-11-15T17:19:17.359Z,78.10
2022-11-15T17:21:45.028Z,79.10
2022-11-15T17:24:12.401Z,80.00
2022-11-15T17:26:40.993Z,81.20
2022-11-15T17:29:17.167Z,82.40
2022-11-15T17:31:47.427Z,83.70
2022-11-15T17:34:34.586Z,84.30
2022-11-15T17:37:01.352Z,85.10
2022-11-15T17:39:28.178Z,86.50
2022-11-15T17:41:54.932Z,88.00
2022-11-15T17:44:24.494Z,89.00
2022-11-15T17:47:04.484Z,90.00
2022-11-15T17:49:39.463Z,90.60
2022-11-15T17:52:06.545Z,91.50
2022-11-15T17:54:41.109Z,91.60
2022-11-15T17:57:22.356Z,92.20
2022-11-15T17:59:49.464Z,92.60
2022-11-15T18:02:16.217Z,93.00
2022-11-15T18:04:45.357Z,93.30
2022-11-15T18:07:13.994Z,93.90
2022-11-15T18:09:43.811Z,94.40
2022-11-15T18:12:11.949Z,94.90
2022-11-15T18:14:39.077Z,95.40
2022-11-15T18:17:07.506Z,95.80
2022-11-15T18:19:34.753Z,96.30
2022-11-15T18:22:04.148Z,96.70
2022-11-15T18:24:37.105Z,97.00
2022-11-15T18:27:14.512Z,97.40
2022-11-15T18:30:01.228Z,97.70
2022-11-15T18:32:27.964Z,98.00
2022-11-15T18:34:54.777Z,98.20
2022-11-15T18:37:24.676Z,98.30
2022-11-15T18:39:54.553Z,98.50
2022-11-15T18:42:21.273Z,98.60
2022-11-15T18:44:50.863Z,98.70
2022-11-15T18:47:19.681Z,99.10
2022-11-15T18:49:46.498Z,99.00
2022-11-15T18:52:13.238Z,99.10
2022-11-15T18:54:39.994Z,99.30
2022-11-15T18:57:07.080Z,99.40
2022-11-15T18:59:33.905Z,99.40
2022-11-15T19:02:00.689Z,99.60
2022-11-15T19:04:27.529Z,99.60
2022-11-15T19:06:54.435Z,99.70
2022-11-15T19:09:21.381Z,99.70
2022-11-15T19:11:51.348Z,99.80
2022-11-15T19:14:19.540Z,99.90
2022-11-15T19:16:52.443Z,99.90
2022-11-15T19:19:25.443Z,99.90
2022-11-15T19:21:53.222Z,99.90
2022-11-15T19:24:20.925Z,99.90
2022-11-15T19:26:47.757Z,99.90
2022-11-15T19:29:18.315Z,99.90
2022-11-15T19:31:47.733Z,99.90
2022-11-15T19:34:18.043Z,99.90
2022-11-15T19:36:45.973Z,99.90
2022-11-15T19:39:14.767Z,99.90
2022-11-15T19:41:43.240Z,99.90
2022-11-15T19:44:11.876Z,99.90
2022-11-15T19:46:49.043Z,99.90
2022-11-15T19:49:15.969Z,99.90
2022-11-15T19:51:45.026Z,99.90
2022-11-15T19:54:13.532Z,99.90
2022-11-15T19:56:40.445Z,99.90
2022-11-15T19:59:07.683Z,99.90
2022-11-15T20:01:38.060Z,99.90
2022-11-15T20:04:05.557Z,99.90
2022-11-15T20:06:34.998Z,99.90
2022-11-15T20:09:04.816Z,99.90
2022-11-15T20:11:32.077Z,99.90
2022-11-15T20:14:02.026Z,99.90
2022-11-15T20:16:43.194Z,99.90
2022-11-15T20:19:12.539Z,99.90
2022-11-15T20:21:40.127Z,99.90
2022-11-15T20:24:07.414Z,99.90
2022-11-15T20:26:35.603Z,99.90
2022-11-15T20:29:03.223Z,99.90
2022-11-15T20:31:30.903Z,99.90
2022-11-15T20:33:57.778Z,99.90
2022-11-15T20:36:26.052Z,99.90
2022-11-15T20:38:57.536Z,99.90
2022-11-15T20:41:24.188Z,99.90
2022-11-15T20:43:51.680Z,99.90
2022-11-15T20:46:19.813Z,99.90
2022-11-15T20:48:46.870Z,99.90
2022-11-15T20:51:16.259Z,99.90
2022-11-15T20:53:47.249Z,99.90
2022-11-15T20:56:15.821Z,99.90
2022-11-15T20:58:45.017Z,99.90
2022-11-15T21:01:15.156Z,99.90
2022-11-15T21:03:52.957Z,99.90
2022-11-15T21:06:23.308Z,99.90
2022-11-15T21:09:23.974Z,99.90
2022-11-15T21:12:09.755Z,99.90
2022-11-15T21:14:37.351Z,99.90
2022-11-15T21:17:07.567Z,99.90
2022-11-15T21:19:37.017Z,99.90
2022-11-15T21:22:07.986Z,99.90
2022-11-15T21:24:34.800Z,99.90
2022-11-15T21:27:01.662Z,99.90
2022-11-15T21:29:36.575Z,99.90
2022-11-15T21:32:07.171Z,99.90
2022-11-15T21:34:36.727Z,99.90
2022-11-15T21:37:04.983Z,99.90
2022-11-15T21:39:31.806Z,99.90
2022-11-15T21:41:58.662Z,99.90
2022-11-15T21:44:25.441Z,99.90
2022-11-15T21:46:52.250Z,99.90
2022-11-15T21:49:21.176Z,99.90
2022-11-15T21:51:51.118Z,99.90
2022-11-15T21:54:18.062Z,99.90
2022-11-15T21:56:46.191Z,99.90
2022-11-15T21:59:13.056Z,99.90
2022-11-15T22:01:58.354Z,99.90
2022-11-15T22:04:25.528Z,99.90
2022-11-15T22:06:54.860Z,99.90
2022-11-15T22:09:32.407Z,99.90
2022-11-15T22:11:59.227Z,99.90
2022-11-15T22:14:26.030Z,99.90
2022-11-15T22:16:58.762Z,99.90
2022-11-15T22:19:25.559Z,99.90
2022-11-15T22:21:52.668Z,99.90
2022-11-15T22:24:31.918Z,99.90
2022-11-15T22:26:58.708Z,99.90
2022-11-15T22:29:26.089Z,99.90
2022-11-15T22:31:52.830Z,99.90
2022-11-15T22:34:19.925Z,99.90
2022-11-15T22:37:18.111Z,99.90
2022-11-15T22:39:37.625Z,99.90
2022-11-15T22:42:04.525Z,99.90
2022-11-15T22:44:35.760Z,99.90
2022-11-15T22:47:02.487Z,99.90
2022-11-15T22:49:37.986Z,99.90
2022-11-15T22:52:04.925Z,99.90
2022-11-15T22:54:32.381Z,99.90
2022-11-15T22:57:08.171Z,99.90
2022-11-15T22:59:37.511Z,99.90
2022-11-15T23:02:07.572Z,99.90
2022-11-15T23:04:36.892Z,99.90
2022-11-15T23:07:03.729Z,99.90
2022-11-15T23:09:30.605Z,99.90
2022-11-15T23:12:16.000Z,99.90
2022-11-15T23:14:42.763Z,99.90
2022-11-15T23:17:09.675Z,99.90
2022-11-15T23:19:45.523Z,99.90
2022-11-15T23:22:33.589Z,99.90
2022-11-15T23:25:00.367Z,99.90
2022-11-15T23:27:27.389Z,99.90
2022-11-15T23:30:13.263Z,99.90
2022-11-15T23:32:58.955Z,99.90
2022-11-15T23:35:26.647Z,99.90
2022-11-15T23:37:53.362Z,99.90
2022-11-15T23:40:20.550Z,99.90
2022-11-15T23:42:47.367Z,99.90
2022-11-15T23:45:14.113Z,99.90
2022-11-15T23:47:41.095Z,99.90
2022-11-15T23:50:08.304Z,99.90
2022-11-15T23:52:35.062Z,99.90
2022-11-15T23:55:01.940Z,99.90
2022-11-15T23:57:28.681Z,99.90
2022-11-15T23:59:55.407Z,99.90
